Lynn Township, Michigan
Current Conditions -  °F | °C
As of 11:18 PM on Tuesday 27 Jan 2015 (Local Time) from KPHN Reporting Station
Clear Clear  
Wind Chill: 14°   Ceiling: Unl
Heat Index: 14°   Visibility: 10mi
Dew Point:   Wind: 3mph
Humidity: 79%   Direction: 320°NW
Pressure: 30.2"   Gusts: NA
Location:  43.127°N, 82.8328°W
Report Text: KPHN 280418Z AUTO 32003KT 10SM CLR M10/M13 A3020 RMK AO2
Loading
Personal Weather Stations






























Interactive Weather Map New forecast layout! Learn more

10-Day Weather Forecast

Advertisements
Track Severe Weather on mobile